Time;durP1;ratioP1;P1;durP2;ratioP2;P2;SDS_P1;SDS_P2;PMS_P1;PMS_P2;Temp;Humidity;BMP_temperature;BMP_pressure;BME280_temperature;BME280_humidity;BME280_pressure;Samples;Min_cycle;Max_cycle;Signal;HPM_P1;HPM_P2
2022/01/03 00:01:56;;;;;;;0.30;0.20;;;10.50;99.90;;;;;;5115449;28;20492;-86
2022/01/03 00:04:23;;;;;;;0.30;0.30;;;10.50;99.90;;;;;;5115392;28;20452;-86
2022/01/03 00:06:50;;;;;;;0.30;0.30;;;10.50;99.90;;;;;;5115571;28;20451;-86
2022/01/03 00:09:17;;;;;;;0.40;0.40;;;10.50;99.90;;;;;;5115387;28;20451;-86
2022/01/03 00:11:46;;;;;;;0.30;0.27;;;10.50;99.90;;;;;;5115388;28;20450;-86
2022/01/03 00:14:12;;;;;;;1.50;0.30;;;10.50;99.90;;;;;;5115786;28;20450;-86
2022/01/03 00:16:39;;;;;;;0.87;0.40;;;10.50;99.90;;;;;;5114738;28;20502;-86
2022/01/03 00:19:06;;;;;;;0.30;0.27;;;10.50;99.90;;;;;;5115315;28;20927;-86
2022/01/03 00:21:42;;;;;;;0.30;0.30;;;10.50;99.90;;;;;;5115145;28;20443;-85
2022/01/03 00:24:11;;;;;;;0.30;0.20;;;10.40;99.90;;;;;;5114696;28;20467;-86
2022/01/03 00:26:39;;;;;;;0.30;0.20;;;10.40;99.90;;;;;;5114978;28;20799;-86
2022/01/03 00:29:10;;;;;;;0.30;0.30;;;10.40;99.90;;;;;;5114662;28;20454;-86
2022/01/03 00:31:39;;;;;;;0.73;0.73;;;10.40;99.90;;;;;;5114919;27;20442;-86
2022/01/03 00:34:08;;;;;;;0.30;0.20;;;10.40;99.90;;;;;;5114950;28;20463;-86
2022/01/03 00:36:35;;;;;;;0.30;0.20;;;10.40;99.90;;;;;;5114522;28;20482;-86
2022/01/03 00:39:04;;;;;;;0.30;0.30;;;10.40;99.90;;;;;;5114662;27;20451;-85
2022/01/03 00:41:31;;;;;;;0.30;0.20;;;10.40;99.90;;;;;;5114365;28;20443;-87
2022/01/03 00:43:58;;;;;;;0.40;0.40;;;10.50;99.90;;;;;;5114660;28;20458;-86
2022/01/03 00:46:26;;;;;;;0.30;0.30;;;10.50;99.90;;;;;;5114606;28;20461;-85
2022/01/03 00:48:55;;;;;;;0.30;0.30;;;10.50;99.90;;;;;;5114280;28;20957;-85
2022/01/03 00:51:22;;;;;;;0.30;0.23;;;10.40;99.90;;;;;;5114558;27;20439;-85
2022/01/03 00:53:51;;;;;;;0.40;0.30;;;10.40;99.90;;;;;;5114407;28;20478;-86
2022/01/03 00:56:25;;;;;;;0.30;0.30;;;10.30;99.90;;;;;;5114010;28;20999;-86
2022/01/03 00:58:55;;;;;;;0.50;0.30;;;10.30;99.90;;;;;;5114580;28;20492;-85
2022/01/03 01:01:23;;;;;;;0.30;0.30;;;10.30;99.90;;;;;;5115092;28;20783;-86
2022/01/03 01:03:54;;;;;;;0.60;0.30;;;10.30;99.90;;;;;;5118586;28;20479;-86
2022/01/03 01:06:22;;;;;;;0.40;0.30;;;10.40;99.90;;;;;;5114083;28;20412;-85
2022/01/03 01:08:55;;;;;;;0.30;0.20;;;10.30;99.90;;;;;;5114292;28;20447;-85
2022/01/03 01:11:26;;;;;;;0.40;0.30;;;10.30;99.90;;;;;;5114409;28;20480;-86
2022/01/03 01:13:53;;;;;;;0.43;0.43;;;10.30;99.90;;;;;;5114071;27;20466;-85
2022/01/03 01:16:21;;;;;;;0.30;0.30;;;10.40;99.90;;;;;;5113643;28;20490;-85
2022/01/03 01:18:48;;;;;;;0.30;0.20;;;10.30;99.90;;;;;;5113864;28;20955;-86
2022/01/03 01:21:17;;;;;;;0.30;0.30;;;10.30;99.90;;;;;;5114160;28;20458;-85
2022/01/03 01:23:44;;;;;;;0.30;0.30;;;10.30;99.90;;;;;;5114057;28;20467;-85
2022/01/03 01:28:56;;;;;;;0.40;0.30;;;10.30;99.90;;;;;;5113830;28;20403;-85
2022/01/03 01:31:25;;;;;;;0.30;0.30;;;10.20;99.90;;;;;;5113901;28;20443;-85
2022/01/03 01:33:55;;;;;;;0.30;0.27;;;10.10;99.90;;;;;;5113861;28;20470;-85
2022/01/03 01:36:26;;;;;;;0.30;0.20;;;10.10;99.90;;;;;;5113579;28;20981;-85
2022/01/03 01:38:59;;;;;;;0.30;0.20;;;10.00;99.90;;;;;;5114141;28;20484;-85
2022/01/03 01:41:28;;;;;;;0.30;0.20;;;10.00;99.90;;;;;;5114109;28;20800;-86
2022/01/03 01:44:00;;;;;;;0.30;0.30;;;10.00;99.90;;;;;;5113889;28;20474;-85
2022/01/03 01:46:28;;;;;;;0.30;0.30;;;10.00;99.90;;;;;;5117015;28;20438;-86
2022/01/03 01:48:55;;;;;;;0.30;0.30;;;10.00;99.90;;;;;;5114916;28;20629;-86
2022/01/03 01:51:25;;;;;;;0.30;0.20;;;10.00;99.90;;;;;;5114387;28;20807;-85
2022/01/03 01:53:55;;;;;;;0.40;0.30;;;9.90;99.90;;;;;;5113853;28;20908;-85
2022/01/03 01:56:25;;;;;;;0.30;0.30;;;9.80;99.90;;;;;;5113510;28;20451;-85
2022/01/03 01:59:11;;;;;;;0.40;0.30;;;9.80;99.90;;;;;;5113468;28;20942;-85
2022/01/03 02:01:49;;;;;;;0.30;0.20;;;9.90;99.90;;;;;;5113521;28;20512;-85
2022/01/03 02:04:35;;;;;;;0.30;0.20;;;9.90;99.90;;;;;;5113780;28;20430;-85
2022/01/03 02:07:26;;;;;;;0.30;0.20;;;9.90;99.90;;;;;;5114669;28;20430;-86
2022/01/03 02:10:04;;;;;;;0.50;0.30;;;9.80;99.90;;;;;;5113747;28;20432;-88
2022/01/03 02:12:36;;;;;;;0.30;0.20;;;9.80;99.90;;;;;;5113652;28;20473;-85
2022/01/03 02:15:03;;;;;;;0.30;0.20;;;9.80;99.90;;;;;;5114073;28;20423;-85
2022/01/03 02:17:30;;;;;;;0.30;0.20;;;9.80;99.90;;;;;;5117885;28;20925;-85
2022/01/03 02:20:07;;;;;;;0.30;0.20;;;9.80;99.90;;;;;;5117865;28;20450;-86
2022/01/03 02:22:34;;;;;;;0.30;0.30;;;9.80;99.90;;;;;;5118521;28;20459;-85
2022/01/03 02:25:01;;;;;;;0.30;0.23;;;9.80;99.90;;;;;;5117424;28;20450;-86
2022/01/03 02:27:27;;;;;;;0.40;0.30;;;9.80;99.90;;;;;;5117109;28;20958;-86
2022/01/03 02:29:54;;;;;;;0.30;0.20;;;9.80;99.90;;;;;;5117006;28;20956;-86
2022/01/03 02:32:21;;;;;;;0.30;0.30;;;9.70;99.90;;;;;;5117126;28;20474;-85
2022/01/03 02:34:48;;;;;;;0.30;0.20;;;9.70;99.90;;;;;;5117252;28;20451;-86
2022/01/03 02:37:17;;;;;;;0.30;0.20;;;9.70;99.90;;;;;;5117133;28;20846;-86
2022/01/03 02:39:44;;;;;;;0.33;0.33;;;9.70;99.90;;;;;;5117212;28;20449;-86
2022/01/03 02:42:12;;;;;;;0.40;0.30;;;9.80;99.90;;;;;;5117084;28;20478;-86
2022/01/03 02:44:39;;;;;;;0.30;0.20;;;9.90;99.90;;;;;;5117716;28;20546;-86
2022/01/03 02:47:06;;;;;;;0.30;0.30;;;10.00;99.90;;;;;;5117114;28;20448;-86
2022/01/03 02:49:33;;;;;;;0.30;0.20;;;9.90;99.90;;;;;;5116912;28;20457;-86
2022/01/03 02:51:59;;;;;;;0.33;0.30;;;9.90;99.90;;;;;;5116818;28;20458;-85
2022/01/03 02:54:27;;;;;;;0.30;0.30;;;9.90;99.90;;;;;;5116948;28;20443;-86
2022/01/03 02:56:54;;;;;;;0.30;0.20;;;9.90;99.90;;;;;;5116400;28;20461;-86
2022/01/03 02:59:21;;;;;;;0.40;0.40;;;9.90;99.90;;;;;;5116444;28;20970;-86
2022/01/03 03:01:49;;;;;;;0.30;0.23;;;9.80;99.90;;;;;;5116557;28;20439;-86
2022/01/03 03:04:16;;;;;;;0.30;0.20;;;9.90;99.90;;;;;;5116765;28;20922;-85
2022/01/03 03:06:43;;;;;;;0.30;0.20;;;9.90;99.90;;;;;;5116290;28;20431;-86
2022/01/03 03:09:09;;;;;;;0.40;0.30;;;9.90;99.90;;;;;;5116233;28;20962;-86
2022/01/03 03:11:39;;;;;;;0.80;0.30;;;9.90;99.90;;;;;;5116474;28;20530;-86
2022/01/03 03:14:06;;;;;;;0.30;0.20;;;9.80;99.90;;;;;;5116406;28;20467;-86
2022/01/03 03:16:32;;;;;;;0.30;0.20;;;9.80;99.90;;;;;;5116022;28;20474;-86
2022/01/03 03:18:59;;;;;;;0.30;0.20;;;9.80;99.90;;;;;;5115959;27;20483;-86
2022/01/03 03:21:29;;;;;;;4.20;0.40;;;9.80;99.90;;;;;;5116183;28;20454;-85
2022/01/03 03:23:56;;;;;;;0.30;0.20;;;9.80;99.90;;;;;;5116406;28;20820;-85
2022/01/03 03:26:22;;;;;;;0.30;0.30;;;9.70;99.90;;;;;;5115743;28;20454;-85
2022/01/03 03:28:50;;;;;;;0.30;0.20;;;9.70;99.90;;;;;;5115876;28;20439;-85
2022/01/03 03:31:18;;;;;;;0.40;0.30;;;9.60;99.90;;;;;;5116263;28;20482;-86
2022/01/03 03:33:45;;;;;;;0.30;0.30;;;9.70;99.90;;;;;;5116328;28;20988;-84
2022/01/03 03:36:13;;;;;;;0.30;0.20;;;9.70;99.90;;;;;;5115608;28;20826;-83
2022/01/03 03:38:40;;;;;;;0.40;0.30;;;9.60;99.90;;;;;;5116311;28;20479;-83
2022/01/03 03:41:06;;;;;;;0.30;0.20;;;9.60;99.90;;;;;;5115836;28;20504;-83
2022/01/03 03:43:33;;;;;;;0.30;0.30;;;9.60;99.90;;;;;;5115595;28;20475;-84
2022/01/03 03:46:04;;;;;;;0.30;0.20;;;9.60;99.90;;;;;;5115613;28;20447;-83
2022/01/03 03:48:31;;;;;;;0.30;0.30;;;9.50;99.90;;;;;;5115602;28;20518;-84
2022/01/03 03:50:58;;;;;;;0.30;0.30;;;9.50;99.90;;;;;;5115479;27;20457;-83
2022/01/03 03:53:26;;;;;;;0.30;0.20;;;9.60;99.90;;;;;;5115135;28;20989;-83
2022/01/03 03:55:52;;;;;;;0.30;0.30;;;9.50;99.90;;;;;;5115469;28;20447;-83
2022/01/03 03:58:19;;;;;;;0.30;0.20;;;9.50;99.90;;;;;;5115103;27;20470;-83
2022/01/03 04:00:46;;;;;;;0.40;0.30;;;9.50;99.90;;;;;;5115349;28;20457;-83
2022/01/03 04:03:14;;;;;;;0.50;0.50;;;9.50;99.90;;;;;;5115269;28;20493;-83
2022/01/03 04:05:41;;;;;;;0.30;0.27;;;9.50;99.90;;;;;;5115010;28;20443;-83
2022/01/03 04:08:08;;;;;;;1.07;0.30;;;9.40;99.90;;;;;;5115267;28;20513;-83
2022/01/03 04:10:34;;;;;;;0.30;0.30;;;9.40;99.90;;;;;;5119826;28;20443;-83
2022/01/03 04:13:01;;;;;;;0.60;0.30;;;9.30;99.90;;;;;;5114800;28;20470;-83
2022/01/03 04:15:28;;;;;;;0.30;0.30;;;9.30;99.90;;;;;;5114790;28;20483;-84
2022/01/03 04:17:55;;;;;;;0.30;0.20;;;9.30;99.90;;;;;;5114965;28;20483;-83
2022/01/03 04:20:25;;;;;;;0.30;0.30;;;9.30;99.90;;;;;;5114707;28;20443;-83
2022/01/03 04:22:52;;;;;;;0.30;0.20;;;9.30;99.90;;;;;;5114866;28;20623;-83
2022/01/03 04:25:18;;;;;;;0.37;0.27;;;9.30;99.90;;;;;;5114891;27;20443;-83
2022/01/03 04:27:45;;;;;;;0.30;0.20;;;9.30;99.90;;;;;;5114853;28;20443;-83
2022/01/03 04:30:12;;;;;;;0.43;0.43;;;9.30;99.90;;;;;;5114793;28;20805;-83
2022/01/03 04:32:39;;;;;;;0.30;0.20;;;9.30;99.90;;;;;;5114640;28;20467;-83
2022/01/03 04:35:07;;;;;;;0.30;0.30;;;9.30;99.90;;;;;;5114705;28;20454;-83
2022/01/03 04:37:35;;;;;;;0.30;0.27;;;9.30;99.90;;;;;;5114607;28;20452;-83
2022/01/03 04:40:02;;;;;;;0.63;0.63;;;9.30;99.90;;;;;;5114418;28;20451;-83
2022/01/03 04:42:29;;;;;;;0.30;0.20;;;9.40;99.90;;;;;;5114514;28;20470;-83
2022/01/03 04:44:56;;;;;;;0.30;0.20;;;9.40;99.90;;;;;;5114552;28;20788;-83
2022/01/03 04:47:23;;;;;;;0.30;0.30;;;9.50;99.90;;;;;;5114484;28;20461;-83
2022/01/03 04:49:50;;;;;;;0.30;0.20;;;9.60;99.90;;;;;;5114407;28;20450;-83
2022/01/03 04:52:16;;;;;;;0.30;0.20;;;9.70;99.90;;;;;;5114277;28;20470;-83
2022/01/03 04:54:45;;;;;;;0.30;0.30;;;9.60;99.90;;;;;;5114367;28;20435;-82
2022/01/03 04:57:12;;;;;;;0.30;0.20;;;9.60;99.90;;;;;;5114689;28;20447;-83
2022/01/03 04:59:38;;;;;;;0.40;0.30;;;9.60;99.90;;;;;;5114308;28;20479;-83
2022/01/03 05:02:05;;;;;;;0.30;0.20;;;9.60;99.90;;;;;;5114170;28;20467;-83
2022/01/03 05:04:32;;;;;;;0.33;0.27;;;9.60;99.90;;;;;;5113915;28;20446;-83
2022/01/03 05:06:58;;;;;;;0.30;0.30;;;9.70;99.90;;;;;;5114131;28;20447;-83
2022/01/03 05:09:25;;;;;;;0.30;0.20;;;9.70;99.90;;;;;;5114151;28;20504;-84
2022/01/03 05:11:53;;;;;;;0.40;0.30;;;9.80;99.90;;;;;;5113982;28;20451;-83
2022/01/03 05:14:20;;;;;;;0.30;0.20;;;9.80;99.90;;;;;;5114081;28;20821;-83
2022/01/03 05:16:47;;;;;;;0.40;0.40;;;9.80;99.90;;;;;;5113588;28;20869;-83
2022/01/03 05:19:13;;;;;;;0.30;0.20;;;9.70;99.90;;;;;;5113889;28;20479;-83
2022/01/03 05:21:40;;;;;;;0.30;0.20;;;9.70;99.90;;;;;;5114034;28;20450;-83
2022/01/03 05:24:07;;;;;;;0.30;0.30;;;9.70;99.90;;;;;;5113543;28;20966;-84
2022/01/03 05:26:34;;;;;;;0.30;0.30;;;9.60;99.90;;;;;;5113933;28;20484;-84
2022/01/03 05:29:02;;;;;;;0.30;0.20;;;9.70;99.90;;;;;;5113956;28;20451;-83
2022/01/03 05:31:29;;;;;;;0.30;0.20;;;9.60;99.90;;;;;;5113556;28;20977;-83
2022/01/03 05:33:56;;;;;;;0.30;0.20;;;9.60;99.90;;;;;;5113794;28;20483;-83
2022/01/03 05:36:23;;;;;;;0.30;0.20;;;9.50;99.90;;;;;;5113833;28;20454;-83
2022/01/03 05:38:50;;;;;;;0.30;0.30;;;9.40;99.90;;;;;;5113699;28;20467;-82
2022/01/03 05:41:16;;;;;;;0.33;0.27;;;9.40;99.90;;;;;;5113741;28;20451;-83
2022/01/03 05:43:44;;;;;;;0.40;0.30;;;9.30;99.90;;;;;;5113425;28;20993;-83
2022/01/03 05:46:12;;;;;;;0.30;0.30;;;9.30;99.90;;;;;;5113711;28;20447;-83
2022/01/03 05:48:39;;;;;;;0.50;0.50;;;9.10;99.90;;;;;;5113718;28;20443;-83
2022/01/03 05:51:07;;;;;;;0.30;0.30;;;9.10;99.90;;;;;;5117617;28;20438;-83
2022/01/03 05:53:33;;;;;;;0.30;0.20;;;9.00;99.90;;;;;;5117767;28;20474;-83
2022/01/03 05:56:01;;;;;;;0.30;0.20;;;9.00;99.90;;;;;;5117789;28;20469;-83
2022/01/03 05:58:28;;;;;;;0.40;0.40;;;9.00;99.90;;;;;;5117696;28;20487;-83
2022/01/03 06:00:55;;;;;;;0.30;0.20;;;9.10;99.90;;;;;;5117736;28;20560;-83
2022/01/03 06:03:24;;;;;;;0.30;0.20;;;9.10;99.90;;;;;;5117274;28;20462;-83
2022/01/03 06:06:06;;;;;;;0.40;0.30;;;9.10;99.90;;;;;;5117615;28;20867;-83
2022/01/03 06:08:33;;;;;;;0.40;0.40;;;9.20;99.90;;;;;;5117592;28;20431;-83
2022/01/03 06:10:59;;;;;;;0.33;0.30;;;9.30;99.90;;;;;;5117484;28;20454;-82
2022/01/03 06:13:26;;;;;;;0.60;0.30;;;9.40;99.90;;;;;;5117383;28;20467;-82
2022/01/03 06:15:53;;;;;;;0.30;0.30;;;9.40;99.90;;;;;;5117085;27;20479;-82
2022/01/03 06:18:20;;;;;;;0.30;0.20;;;9.30;99.90;;;;;;5117260;28;20482;-82
2022/01/03 06:20:51;;;;;;;0.30;0.30;;;9.40;99.90;;;;;;5117053;27;20458;-82
2022/01/03 06:23:19;;;;;;;0.37;0.37;;;9.30;99.90;;;;;;5117168;28;20466;-82
2022/01/03 06:25:46;;;;;;;0.30;0.20;;;9.20;99.90;;;;;;5117185;28;20454;-82
2022/01/03 06:28:13;;;;;;;9.40;0.40;;;9.20;99.90;;;;;;5117115;28;20450;-82
2022/01/03 06:30:41;;;;;;;0.30;0.20;;;9.20;99.90;;;;;;5117113;28;20454;-82
2022/01/03 06:33:09;;;;;;;0.30;0.20;;;9.20;99.90;;;;;;5116999;28;20837;-82
2022/01/03 06:35:36;;;;;;;0.53;0.53;;;9.20;99.90;;;;;;5116744;28;20454;-82
2022/01/03 06:38:05;;;;;;;0.30;0.20;;;9.20;99.90;;;;;;5116869;28;20452;-81
2022/01/03 06:40:32;;;;;;;0.30;0.30;;;9.30;99.90;;;;;;5116593;28;20512;-82
2022/01/03 06:42:59;;;;;;;0.30;0.30;;;9.30;99.90;;;;;;5116774;28;20471;-82
2022/01/03 06:45:26;;;;;;;0.30;0.20;;;9.30;99.90;;;;;;5116487;28;20431;-82
2022/01/03 06:47:53;;;;;;;0.40;0.30;;;9.30;99.90;;;;;;5116476;28;20439;-81
2022/01/03 06:50:20;;;;;;;0.40;0.30;;;9.40;99.90;;;;;;5116693;28;20419;-81
2022/01/03 06:52:47;;;;;;;0.30;0.30;;;9.40;99.90;;;;;;5116217;28;20459;-82
2022/01/03 06:55:16;;;;;;;0.30;0.30;;;9.40;99.90;;;;;;5116580;28;20419;-82
2022/01/03 06:57:42;;;;;;;0.30;0.20;;;9.50;99.90;;;;;;5116264;28;20408;-82
2022/01/03 07:00:10;;;;;;;0.30;0.20;;;9.40;99.90;;;;;;5116410;28;20467;-81
2022/01/03 07:02:40;;;;;;;0.50;0.50;;;9.40;99.90;;;;;;5115424;28;20474;-81
2022/01/03 07:05:08;;;;;;;0.30;0.30;;;9.40;99.90;;;;;;5116436;28;20441;-81
2022/01/03 07:07:34;;;;;;;0.30;0.30;;;9.40;99.90;;;;;;5116402;28;20431;-81
2022/01/03 07:10:01;;;;;;;1.33;1.03;;;9.40;99.90;;;;;;5116015;28;20797;-81
2022/01/03 07:12:29;;;;;;;0.30;0.30;;;9.50;99.90;;;;;;5115975;28;20535;-81
2022/01/03 07:20:25;;;;;;;0.30;0.20;;;9.40;99.90;;;;;;5121522;28;20516;-82
2022/01/03 07:22:52;;;;;;;0.30;0.20;;;9.40;99.90;;;;;;5116828;28;20463;-82
2022/01/03 07:25:19;;;;;;;0.30;0.20;;;9.40;99.90;;;;;;5116766;28;20455;-82
2022/01/03 07:27:47;;;;;;;0.40;0.30;;;9.40;99.90;;;;;;5116325;28;20969;-81
2022/01/03 07:30:14;;;;;;;0.60;0.30;;;9.40;99.90;;;;;;5116606;27;20443;-82
2022/01/03 07:32:42;;;;;;;0.30;0.20;;;9.40;99.90;;;;;;5117683;28;20986;-82
2022/01/03 07:35:12;;;;;;;0.30;0.30;;;9.40;99.90;;;;;;5116608;27;20949;-82
2022/01/03 07:37:38;;;;;;;0.50;0.30;;;9.40;99.90;;;;;;5116089;28;20991;-82
2022/01/03 07:40:06;;;;;;;0.30;0.20;;;9.50;99.90;;;;;;5115970;28;20474;-82
2022/01/03 07:42:33;;;;;;;0.30;0.20;;;9.50;99.90;;;;;;5116113;28;20467;-82
2022/01/03 07:45:01;;;;;;;0.30;0.20;;;9.50;99.90;;;;;;5115901;28;20443;-76
2022/01/03 07:47:28;;;;;;;0.50;0.50;;;9.40;99.90;;;;;;5115391;28;20882;-82
2022/01/03 07:49:55;;;;;;;0.30;0.30;;;9.30;99.90;;;;;;5115438;28;20785;-82
2022/01/03 07:52:21;;;;;;;0.30;0.30;;;9.20;99.90;;;;;;5116557;28;20502;-82
2022/01/03 07:54:51;;;;;;;0.30;0.20;;;9.20;99.90;;;;;;5116305;28;20443;-82
2022/01/03 07:57:18;;;;;;;0.40;0.30;;;9.20;99.90;;;;;;5115924;27;20424;-81
2022/01/03 07:59:46;;;;;;;0.30;0.27;;;9.30;99.90;;;;;;5116227;28;20486;-82
2022/01/03 08:02:15;;;;;;;0.40;0.30;;;9.30;99.90;;;;;;5115695;28;20463;-82
2022/01/03 08:04:41;;;;;;;0.30;0.20;;;9.30;99.90;;;;;;5115479;28;20938;-82
2022/01/03 08:07:08;;;;;;;0.30;0.20;;;9.30;99.90;;;;;;5115904;27;20450;-82
2022/01/03 08:09:35;;;;;;;0.30;0.30;;;9.30;99.90;;;;;;5115671;28;20454;-82
2022/01/03 08:12:02;;;;;;;0.30;0.20;;;9.40;99.90;;;;;;5115394;28;20432;-82
2022/01/03 08:14:29;;;;;;;0.30;0.30;;;9.40;99.90;;;;;;5115739;28;20443;-82
2022/01/03 08:16:56;;;;;;;0.30;0.30;;;9.40;99.90;;;;;;5115211;28;20974;-82
2022/01/03 08:19:24;;;;;;;0.30;0.27;;;9.50;99.90;;;;;;5115638;28;20494;-81
2022/01/03 08:21:51;;;;;;;0.30;0.30;;;9.40;99.90;;;;;;5115367;28;20447;-82
2022/01/03 08:24:18;;;;;;;0.30;0.20;;;9.50;99.90;;;;;;5115277;28;20786;-82
2022/01/03 08:26:45;;;;;;;0.40;0.30;;;9.50;99.90;;;;;;5115110;28;20431;-82
2022/01/03 08:29:12;;;;;;;0.30;0.30;;;9.40;99.90;;;;;;5115521;28;20427;-82
2022/01/03 08:31:39;;;;;;;0.30;0.20;;;9.40;99.90;;;;;;5115577;28;20447;-82
2022/01/03 08:34:06;;;;;;;0.30;0.30;;;9.40;99.90;;;;;;5115196;28;20463;-82
2022/01/03 08:36:35;;;;;;;0.30;0.30;;;9.50;99.90;;;;;;5115183;28;20424;-82
2022/01/03 08:39:02;;;;;;;0.30;0.20;;;9.50;99.90;;;;;;5115229;28;20467;-82
2022/01/03 08:41:29;;;;;;;0.30;0.20;;;9.60;99.90;;;;;;5114831;28;20439;-82
2022/01/03 08:43:55;;;;;;;0.30;0.20;;;9.60;99.90;;;;;;5114978;28;20463;-82
2022/01/03 08:46:23;;;;;;;0.40;0.30;;;9.70;99.90;;;;;;5115309;28;20439;-82
2022/01/03 08:48:50;;;;;;;0.30;0.20;;;9.80;99.90;;;;;;5114802;28;20503;-82
2022/01/03 08:51:17;;;;;;;0.70;0.30;;;9.80;99.90;;;;;;5113994;28;20431;-82
2022/01/03 08:53:45;;;;;;;0.40;0.40;;;9.80;99.90;;;;;;5114634;28;20478;-82
2022/01/03 08:56:12;;;;;;;0.30;0.30;;;9.80;99.90;;;;;;5114640;28;20436;-82
2022/01/03 08:58:39;;;;;;;0.30;0.20;;;9.90;99.90;;;;;;5114589;28;20428;-82
2022/01/03 09:01:06;;;;;;;0.30;0.30;;;10.00;99.90;;;;;;5114511;28;20510;-82
2022/01/03 09:03:33;;;;;;;0.30;0.20;;;10.10;99.90;;;;;;5115701;28;20816;-82
2022/01/03 09:06:00;;;;;;;0.30;0.20;;;10.10;99.90;;;;;;5114995;27;20431;-83
2022/01/03 09:08:27;;;;;;;0.30;0.20;;;10.20;99.90;;;;;;5114127;27;20427;-83
2022/01/03 09:10:56;;;;;;;0.30;0.30;;;10.20;99.90;;;;;;5113889;28;20419;-83
2022/01/03 09:13:23;;;;;;;0.40;0.30;;;10.20;99.90;;;;;;5113792;28;20477;-83
2022/01/03 09:15:50;;;;;;;0.30;0.20;;;10.20;99.90;;;;;;5113822;28;20850;-83
2022/01/03 09:18:18;;;;;;;0.30;0.30;;;10.20;99.90;;;;;;5114046;28;20451;-84
2022/01/03 09:20:45;;;;;;;0.57;0.27;;;10.20;99.90;;;;;;5113972;28;20463;-84
2022/01/03 09:23:17;;;;;;;0.30;0.20;;;10.30;99.90;;;;;;5113924;28;20513;-83
2022/01/03 09:28:52;;;;;;;0.30;0.27;;;10.40;99.90;;;;;;5037957;28;20453;-83
2022/01/03 09:31:21;;;;;;;0.30;0.20;;;10.40;99.90;;;;;;5113913;28;20484;-83
2022/01/03 09:33:48;;;;;;;0.30;0.20;;;10.40;99.90;;;;;;5113603;28;20851;-82
2022/01/03 09:36:15;;;;;;;0.50;0.33;;;10.40;99.90;;;;;;5114094;28;20511;-83
2022/01/03 09:38:42;;;;;;;0.30;0.30;;;10.40;99.90;;;;;;5114208;28;20770;-85
2022/01/03 09:41:11;;;;;;;0.30;0.30;;;10.50;99.90;;;;;;5114100;28;20475;-84
2022/01/03 09:43:48;;;;;;;0.50;0.30;;;10.50;99.90;;;;;;5113969;28;20467;-85
2022/01/03 09:46:20;;;;;;;0.30;0.30;;;10.50;99.90;;;;;;5114409;28;20430;-85
2022/01/03 09:48:51;;;;;;;0.30;0.20;;;10.40;99.90;;;;;;5114151;28;20430;-85
2022/01/03 09:51:19;;;;;;;0.97;0.40;;;10.40;99.90;;;;;;5114153;28;20488;-84
2022/01/03 09:53:48;;;;;;;0.50;0.40;;;10.40;99.90;;;;;;5114262;28;20500;-84
2022/01/03 09:56:16;;;;;;;0.30;0.20;;;10.50;99.90;;;;;;5114511;28;20431;-84
2022/01/03 09:58:45;;;;;;;0.30;0.30;;;10.50;99.90;;;;;;5114252;28;20427;-80
2022/01/03 10:01:12;;;;;;;0.40;0.30;;;10.50;99.90;;;;;;5113829;28;20973;-86
2022/01/03 10:03:41;;;;;;;0.30;0.20;;;10.60;99.90;;;;;;5114103;28;20974;-87
2022/01/03 10:06:08;;;;;;;0.30;0.30;;;10.60;99.90;;;;;;5113988;28;20526;-85
2022/01/03 10:08:35;;;;;;;0.30;0.20;;;10.60;99.90;;;;;;5114038;28;20439;-86
2022/01/03 10:11:01;;;;;;;0.40;0.30;;;10.60;99.90;;;;;;5114190;28;20431;-82
2022/01/03 10:13:28;;;;;;;0.70;0.70;;;10.60;99.90;;;;;;5113763;28;20475;-83
2022/01/03 10:15:57;;;;;;;0.30;0.30;;;10.60;99.90;;;;;;5113621;28;20490;-87
2022/01/03 10:18:23;;;;;;;0.30;0.20;;;10.70;99.90;;;;;;5112753;28;20949;-82
2022/01/03 10:20:50;;;;;;;0.40;0.30;;;10.70;99.90;;;;;;5113676;28;20470;-82
2022/01/03 10:23:18;;;;;;;0.30;0.20;;;10.70;99.90;;;;;;5113385;28;20451;-83
2022/01/03 10:25:47;;;;;;;0.67;0.53;;;10.70;99.90;;;;;;5113633;28;20489;-82
2022/01/03 10:28:23;;;;;;;0.30;0.30;;;10.70;99.90;;;;;;5113681;28;20451;-82
2022/01/03 10:30:50;;;;;;;0.67;0.37;;;10.70;99.90;;;;;;5118576;28;20427;-82
2022/01/03 10:33:19;;;;;;;0.93;0.40;;;10.70;99.90;;;;;;5113465;28;20466;-82
2022/01/03 10:35:49;;;;;;;0.30;0.30;;;10.70;99.90;;;;;;5113335;28;20786;-82
2022/01/03 10:38:32;;;;;;;0.30;0.20;;;10.70;99.90;;;;;;5117359;28;20815;-82
2022/01/03 10:41:11;;;;;;;0.30;0.20;;;10.70;99.90;;;;;;5116916;28;20965;-83
2022/01/03 10:43:38;;;;;;;0.30;0.30;;;10.60;99.90;;;;;;5117205;28;20524;-83
2022/01/03 10:46:18;;;;;;;0.30;0.20;;;10.60;99.90;;;;;;5117129;28;20447;-83
2022/01/03 10:48:48;;;;;;;0.30;0.20;;;10.60;99.90;;;;;;5117174;28;20438;-83
2022/01/03 10:51:22;;;;;;;0.30;0.30;;;10.60;99.90;;;;;;5116951;28;20473;-85
2022/01/03 10:53:51;;;;;;;0.30;0.30;;;10.60;99.90;;;;;;5116878;28;20883;-84
2022/01/03 10:56:31;;;;;;;0.40;0.30;;;10.70;99.90;;;;;;5117072;28;20474;-85
2022/01/03 10:58:59;;;;;;;0.40;0.30;;;10.70;99.90;;;;;;5116650;28;20493;-85
2022/01/03 11:01:28;;;;;;;0.33;0.30;;;10.70;99.90;;;;;;5116639;28;20992;-84
2022/01/03 11:03:59;;;;;;;0.30;0.20;;;10.70;99.90;;;;;;5116959;28;20462;-85
2022/01/03 11:06:47;;;;;;;0.37;0.27;;;10.70;99.90;;;;;;5116988;28;20431;-85
2022/01/03 11:12:18;;;;;;;0.30;0.30;;;10.80;99.90;;;;;;5116672;28;20454;-83
2022/01/03 11:14:45;;;;;;;0.40;0.30;;;10.80;99.90;;;;;;5116691;28;20492;-83
2022/01/03 11:17:29;;;;;;;0.30;0.20;;;10.90;99.90;;;;;;5116051;28;20479;-81
2022/01/03 11:20:00;;;;;;;0.30;0.20;;;10.90;99.90;;;;;;5116305;28;20463;-79
2022/01/03 11:22:41;;;;;;;0.40;0.40;;;11.00;99.90;;;;;;5115880;27;20978;-79
2022/01/03 11:25:09;;;;;;;0.30;0.20;;;11.00;99.90;;;;;;5115879;28;20945;-80
2022/01/03 11:27:39;;;;;;;0.30;0.30;;;11.00;99.90;;;;;;5116176;28;20798;-80
2022/01/03 11:30:08;;;;;;;0.30;0.30;;;11.00;99.90;;;;;;5115834;28;21010;-80
2022/01/03 11:32:37;;;;;;;0.40;0.30;;;11.00;99.90;;;;;;5115955;28;20470;-80
2022/01/03 11:35:06;;;;;;;0.30;0.20;;;11.00;99.90;;;;;;5115676;27;20959;-80
2022/01/03 11:37:36;;;;;;;0.30;0.30;;;11.10;99.90;;;;;;5115716;28;20942;-80
2022/01/03 11:40:05;;;;;;;0.30;0.20;;;11.00;99.90;;;;;;5115851;27;20459;-80
2022/01/03 11:42:33;;;;;;;0.50;0.50;;;11.10;99.90;;;;;;5115331;28;20978;-80
2022/01/03 11:45:00;;;;;;;0.40;0.40;;;11.10;99.90;;;;;;5115736;27;20819;-80
2022/01/03 11:47:27;;;;;;;0.30;0.30;;;11.00;99.90;;;;;;5115376;28;20443;-80
2022/01/03 11:49:54;;;;;;;0.67;0.30;;;11.10;99.90;;;;;;5115767;28;20439;-78
2022/01/03 11:52:23;;;;;;;0.40;0.30;;;11.00;99.90;;;;;;5115544;27;20471;-87
2022/01/03 11:54:52;;;;;;;0.30;0.30;;;11.00;99.90;;;;;;5115955;28;20443;-84
2022/01/03 11:57:25;;;;;;;0.30;0.30;;;11.00;99.90;;;;;;5115562;28;20942;-85
2022/01/03 12:05:46;;;;;;;0.30;0.30;;;11.00;99.90;;;;;;5115788;28;20430;-85
2022/01/03 12:08:23;;;;;;;0.30;0.30;;;11.00;99.90;;;;;;5115663;28;20450;-85
2022/01/03 12:10:50;;;;;;;0.30;0.20;;;11.00;99.90;;;;;;5115569;28;20423;-85
2022/01/03 12:13:18;;;;;;;0.30;0.30;;;11.00;99.90;;;;;;5115259;27;20455;-84
2022/01/03 12:15:45;;;;;;;0.30;0.30;;;11.00;99.90;;;;;;5115449;28;20470;-84
2022/01/03 12:18:28;;;;;;;0.73;0.37;;;11.00;99.90;;;;;;5115151;28;20942;-84
2022/01/03 12:20:55;;;;;;;0.73;0.30;;;11.00;99.90;;;;;;5115638;28;20459;-86
2022/01/03 12:23:41;;;;;;;0.30;0.30;;;11.10;99.90;;;;;;5115611;28;20470;-86
2022/01/03 12:26:09;;;;;;;0.30;0.27;;;11.10;99.90;;;;;;5115512;28;20412;-86
2022/01/03 12:29:06;;;;;;;0.40;0.30;;;11.10;99.90;;;;;;5115392;28;20977;-76
2022/01/03 12:32:06;;;;;;;0.30;0.30;;;11.10;99.90;;;;;;5114625;28;20942;-87
2022/01/03 12:34:34;;;;;;;0.30;0.20;;;11.10;99.90;;;;;;5110145;28;20538;-87
2022/01/03 12:37:18;;;;;;;0.30;0.20;;;11.20;99.90;;;;;;5115133;28;20443;-87
2022/01/03 12:40:11;;;;;;;0.30;0.30;;;11.20;99.90;;;;;;5114648;28;20938;-88
2022/01/03 12:42:53;;;;;;;0.30;0.30;;;11.20;99.90;;;;;;5114877;28;20462;-86
2022/01/03 12:45:52;;;;;;;0.30;0.20;;;11.20;99.90;;;;;;5115352;28;20454;-87
2022/01/03 12:48:20;;;;;;;0.30;0.30;;;11.20;99.90;;;;;;5114971;28;20937;-86
2022/01/03 12:51:05;;;;;;;0.30;0.23;;;11.10;99.90;;;;;;5114960;27;20439;-86
2022/01/03 12:53:50;;;;;;;0.30;0.20;;;11.10;99.90;;;;;;5115127;28;20470;-87
2022/01/03 12:56:21;;;;;;;1.50;0.30;;;11.10;99.90;;;;;;5115421;28;20476;-87
2022/01/03 12:58:50;;;;;;;0.30;0.30;;;11.10;99.90;;;;;;5114361;28;20510;-86
2022/01/03 13:01:30;;;;;;;0.30;0.20;;;11.10;99.90;;;;;;5114586;28;20483;-86
2022/01/03 13:04:04;;;;;;;0.30;0.27;;;11.10;99.90;;;;;;5114836;28;20950;-84
2022/01/03 13:06:32;;;;;;;0.30;0.30;;;11.10;99.90;;;;;;5114505;28;20450;-84
2022/01/03 13:09:09;;;;;;;0.30;0.30;;;11.10;99.90;;;;;;5114125;28;20457;-85
2022/01/03 13:11:39;;;;;;;0.40;0.30;;;11.10;99.90;;;;;;5114537;28;20431;-85
2022/01/03 13:14:08;;;;;;;0.30;0.20;;;11.10;99.90;;;;;;5114630;28;20463;-85
2022/01/03 13:16:37;;;;;;;0.30;0.20;;;11.20;99.90;;;;;;5113947;28;20485;-86
2022/01/03 13:19:07;;;;;;;0.30;0.23;;;11.20;99.90;;;;;;5114521;28;20420;-86
2022/01/03 13:21:36;;;;;;;0.30;0.23;;;11.30;99.90;;;;;;5114420;28;20467;-86
2022/01/03 13:24:08;;;;;;;0.30;0.20;;;11.30;99.90;;;;;;5113987;28;21040;-85